sensor_id;sensor_type;location;lat;lon;timestamp;pressure;altitude;pressure_sealevel;temperature;humidity
46007;BME280;31738;50.188;8.524;2024-02-26T00:00:21;97226.69;;;8.36;66.89
46007;BME280;31738;50.188;8.524;2024-02-26T00:02:49;97222.16;;;8.36;67.19
46007;BME280;31738;50.188;8.524;2024-02-26T00:05:14;97220.25;;;8.37;66.68
46007;BME280;31738;50.188;8.524;2024-02-26T00:07:40;97217.88;;;8.35;67.14
46007;BME280;31738;50.188;8.524;2024-02-26T00:10:07;97218.38;;;8.37;67.21
46007;BME280;31738;50.188;8.524;2024-02-26T00:12:37;97216.31;;;8.34;67.82
46007;BME280;31738;50.188;8.524;2024-02-26T00:15:08;97196.03;;;8.33;67.51
46007;BME280;31738;50.188;8.524;2024-02-26T00:17:37;97196.63;;;8.30;68.12
46007;BME280;31738;50.188;8.524;2024-02-26T00:20:03;97191.59;;;8.29;68.45
46007;BME280;31738;50.188;8.524;2024-02-26T00:22:37;97197.53;;;8.26;67.95
46007;BME280;31738;50.188;8.524;2024-02-26T00:25:06;97204.72;;;8.25;68.46
46007;BME280;31738;50.188;8.524;2024-02-26T00:27:37;97186.03;;;8.25;68.56
46007;BME280;31738;50.188;8.524;2024-02-26T00:30:05;97192.47;;;8.24;68.71
46007;BME280;31738;50.188;8.524;2024-02-26T00:32:30;97172.69;;;8.25;68.60
46007;BME280;31738;50.188;8.524;2024-02-26T00:34:56;97176.94;;;8.26;68.98
46007;BME280;31738;50.188;8.524;2024-02-26T00:37:21;97151.31;;;8.25;68.96
46007;BME280;31738;50.188;8.524;2024-02-26T00:39:52;97127.28;;;8.25;69.01
46007;BME280;31738;50.188;8.524;2024-02-26T00:42:19;97135.88;;;8.22;69.09
46007;BME280;31738;50.188;8.524;2024-02-26T00:44:47;97132.13;;;8.23;69.49
46007;BME280;31738;50.188;8.524;2024-02-26T00:47:13;97126.19;;;8.26;69.33
46007;BME280;31738;50.188;8.524;2024-02-26T00:49:38;97129.34;;;8.28;69.17
46007;BME280;31738;50.188;8.524;2024-02-26T00:52:04;97125.59;;;8.29;69.27
46007;BME280;31738;50.188;8.524;2024-02-26T00:54:29;97123.41;;;8.31;69.36
46007;BME280;31738;50.188;8.524;2024-02-26T00:56:55;97126.59;;;8.33;68.93
46007;BME280;31738;50.188;8.524;2024-02-26T00:59:21;97123.13;;;8.33;68.58
46007;BME280;31738;50.188;8.524;2024-02-26T01:01:47;97129.75;;;8.35;68.62
46007;BME280;31738;50.188;8.524;2024-02-26T01:07:54;97142.72;;;8.28;68.85
46007;BME280;31738;50.188;8.524;2024-02-26T01:10:22;97135.22;;;8.30;68.69
46007;BME280;31738;50.188;8.524;2024-02-26T01:12:47;97129.88;;;8.30;69.17
46007;BME280;31738;50.188;8.524;2024-02-26T01:15:13;97129.06;;;8.30;68.45
46007;BME280;31738;50.188;8.524;2024-02-26T01:17:39;97122.63;;;8.31;68.53
46007;BME280;31738;50.188;8.524;2024-02-26T01:20:10;97118.06;;;8.31;68.46
46007;BME280;31738;50.188;8.524;2024-02-26T01:22:36;97115.13;;;8.33;68.53
46007;BME280;31738;50.188;8.524;2024-02-26T01:25:07;97117.47;;;8.34;67.95
46007;BME280;31738;50.188;8.524;2024-02-26T01:27:33;97122.81;;;8.34;67.99
46007;BME280;31738;50.188;8.524;2024-02-26T01:29:58;97117.69;;;8.38;68.44
46007;BME280;31738;50.188;8.524;2024-02-26T01:32:30;97127.56;;;8.37;68.21
46007;BME280;31738;50.188;8.524;2024-02-26T01:34:56;97123.03;;;8.38;68.17
46007;BME280;31738;50.188;8.524;2024-02-26T01:37:23;97128.66;;;8.36;68.74
46007;BME280;31738;50.188;8.524;2024-02-26T01:39:52;97127.06;;;8.35;68.53
46007;BME280;31738;50.188;8.524;2024-02-26T01:42:20;97126.59;;;8.33;69.01
46007;BME280;31738;50.188;8.524;2024-02-26T01:44:46;97129.25;;;8.33;68.80
46007;BME280;31738;50.188;8.524;2024-02-26T01:47:12;97132.72;;;8.34;69.14
46007;BME280;31738;50.188;8.524;2024-02-26T01:49:39;97143.41;;;8.34;68.95
46007;BME280;31738;50.188;8.524;2024-02-26T01:52:08;97166.38;;;8.35;69.05
46007;BME280;31738;50.188;8.524;2024-02-26T01:54:37;97149.53;;;8.34;69.06
46007;BME280;31738;50.188;8.524;2024-02-26T01:57:05;97139.66;;;8.35;68.94
46007;BME280;31738;50.188;8.524;2024-02-26T01:59:32;97143.41;;;8.34;68.77
46007;BME280;31738;50.188;8.524;2024-02-26T02:01:59;97133.50;;;8.34;68.62
46007;BME280;31738;50.188;8.524;2024-02-26T02:04:29;97123.13;;;8.33;68.87
46007;BME280;31738;50.188;8.524;2024-02-26T02:06:55;97118.88;;;8.32;69.50
46007;BME280;31738;50.188;8.524;2024-02-26T02:09:23;97116.22;;;8.32;68.77
46007;BME280;31738;50.188;8.524;2024-02-26T02:11:49;97121.56;;;8.32;69.49
46007;BME280;31738;50.188;8.524;2024-02-26T02:14:17;97114.31;;;8.32;69.53
46007;BME280;31738;50.188;8.524;2024-02-26T02:16:42;97122.31;;;8.32;69.17
46007;BME280;31738;50.188;8.524;2024-02-26T02:19:11;97122.81;;;8.34;69.05
46007;BME280;31738;50.188;8.524;2024-02-26T02:21:36;97138.84;;;8.34;69.22
46007;BME280;31738;50.188;8.524;2024-02-26T02:24:05;97137.47;;;8.37;68.99
46007;BME280;31738;50.188;8.524;2024-02-26T02:26:31;97144.19;;;8.34;69.13
46007;BME280;31738;50.188;8.524;2024-02-26T02:28:57;97154.06;;;8.34;69.08
46007;BME280;31738;50.188;8.524;2024-02-26T02:31:24;97154.88;;;8.34;68.87
46007;BME280;31738;50.188;8.524;2024-02-26T02:33:50;97154.88;;;8.34;69.43
46007;BME280;31738;50.188;8.524;2024-02-26T02:36:15;97154.59;;;8.36;68.91
46007;BME280;31738;50.188;8.524;2024-02-26T02:38:49;97148.44;;;8.35;69.41
46007;BME280;31738;50.188;8.524;2024-02-26T02:41:18;97148.25;;;8.32;69.64
46007;BME280;31738;50.188;8.524;2024-02-26T02:43:44;97159.72;;;8.32;69.28
46007;BME280;31738;50.188;8.524;2024-02-26T02:46:10;97156.28;;;8.32;69.74
46007;BME280;31738;50.188;8.524;2024-02-26T02:48:41;97163.19;;;8.33;69.75
46007;BME280;31738;50.188;8.524;2024-02-26T02:51:07;97150.13;;;8.31;69.61
46007;BME280;31738;50.188;8.524;2024-02-26T02:53:32;97152.31;;;8.29;69.90
46007;BME280;31738;50.188;8.524;2024-02-26T02:56:07;97156.06;;;8.28;69.83
46007;BME280;31738;50.188;8.524;2024-02-26T02:58:40;97150.22;;;8.26;69.60
46007;BME280;31738;50.188;8.524;2024-02-26T03:01:09;97149.94;;;8.28;69.86
46007;BME280;31738;50.188;8.524;2024-02-26T03:03:34;97144.88;;;8.26;70.21
46007;BME280;31738;50.188;8.524;2024-02-26T03:06:08;97154.00;;;8.25;70.16
46007;BME280;31738;50.188;8.524;2024-02-26T03:08:33;97144.88;;;8.26;70.15
46007;BME280;31738;50.188;8.524;2024-02-26T03:11:13;97163.88;;;8.25;69.80
46007;BME280;31738;50.188;8.524;2024-02-26T03:13:39;97155.66;;;8.21;70.05
46007;BME280;31738;50.188;8.524;2024-02-26T03:16:05;97127.34;;;8.20;70.45
46007;BME280;31738;50.188;8.524;2024-02-26T03:18:33;97143.97;;;8.17;70.38
46007;BME280;31738;50.188;8.524;2024-02-26T03:21:03;97143.97;;;8.17;70.42
46007;BME280;31738;50.188;8.524;2024-02-26T03:23:28;97139.13;;;8.19;70.66
46007;BME280;31738;50.188;8.524;2024-02-26T03:25:56;97147.13;;;8.19;71.15
46007;BME280;31738;50.188;8.524;2024-02-26T03:28:21;97130.31;;;8.19;71.23
46007;BME280;31738;50.188;8.524;2024-02-26T03:30:46;97143.19;;;8.17;70.65
46007;BME280;31738;50.188;8.524;2024-02-26T03:33:12;97149.91;;;8.14;70.77
46007;BME280;31738;50.188;8.524;2024-02-26T03:35:37;97150.69;;;8.15;71.22
46007;BME280;31738;50.188;8.524;2024-02-26T03:38:03;97144.56;;;8.14;71.31
46007;BME280;31738;50.188;8.524;2024-02-26T03:40:28;97138.44;;;8.14;71.00
46007;BME280;31738;50.188;8.524;2024-02-26T03:42:54;97146.16;;;8.15;71.32
46007;BME280;31738;50.188;8.524;2024-02-26T03:45:19;97147.72;;;8.16;71.38
46007;BME280;31738;50.188;8.524;2024-02-26T03:47:45;97146.16;;;8.15;71.14
46007;BME280;31738;50.188;8.524;2024-02-26T03:50:10;97143.19;;;8.17;71.22
46007;BME280;31738;50.188;8.524;2024-02-26T03:52:36;97145.84;;;8.17;70.92
46007;BME280;31738;50.188;8.524;2024-02-26T03:55:01;97154.66;;;8.17;70.72
46007;BME280;31738;50.188;8.524;2024-02-26T03:57:26;97143.97;;;8.17;71.19
46007;BME280;31738;50.188;8.524;2024-02-26T03:59:52;97150.41;;;8.16;71.26
46007;BME280;31738;50.188;8.524;2024-02-26T04:02:17;97146.16;;;8.15;70.92
46007;BME280;31738;50.188;8.524;2024-02-26T04:04:45;97146.16;;;8.15;71.10
46007;BME280;31738;50.188;8.524;2024-02-26T04:07:11;97140.81;;;8.15;71.52
46007;BME280;31738;50.188;8.524;2024-02-26T04:09:37;97143.97;;;8.17;71.77
46007;BME280;31738;50.188;8.524;2024-02-26T04:12:02;97144.56;;;8.14;71.83
46007;BME280;31738;50.188;8.524;2024-02-26T04:14:28;97127.75;;;8.14;71.37
46007;BME280;31738;50.188;8.524;2024-02-26T04:16:53;97141.88;;;8.14;71.61
46007;BME280;31738;50.188;8.524;2024-02-26T04:19:19;97137.66;;;8.13;72.53
46007;BME280;31738;50.188;8.524;2024-02-26T04:21:46;97137.94;;;8.12;72.55
46007;BME280;31738;50.188;8.524;2024-02-26T04:24:11;97127.56;;;8.10;72.48
46007;BME280;31738;50.188;8.524;2024-02-26T04:26:37;97143.56;;;8.10;72.89
46007;BME280;31738;50.188;8.524;2024-02-26T04:29:02;97138.25;;;8.10;72.56
46007;BME280;31738;50.188;8.524;2024-02-26T04:31:28;97141.97;;;8.09;73.18
46007;BME280;31738;50.188;8.524;2024-02-26T04:33:53;97130.81;;;8.07;73.55
46007;BME280;31738;50.188;8.524;2024-02-26T04:36:19;97133.28;;;8.04;73.56
46007;BME280;31738;50.188;8.524;2024-02-26T04:38:45;97124.78;;;8.02;74.60
46007;BME280;31738;50.188;8.524;2024-02-26T04:41:11;97116.28;;;8.00;74.61
46007;BME280;31738;50.188;8.524;2024-02-26T04:43:37;97110.75;;;7.96;75.07
46007;BME280;31738;50.188;8.524;2024-02-26T04:46:10;97110.22;;;7.94;75.00
46007;BME280;31738;50.188;8.524;2024-02-26T04:48:38;97096.41;;;7.92;75.15
46007;BME280;31738;50.188;8.524;2024-02-26T04:51:04;97104.72;;;7.91;75.60
46007;BME280;31738;50.188;8.524;2024-02-26T04:53:30;97100.44;;;7.90;76.06
46007;BME280;31738;50.188;8.524;2024-02-26T04:55:55;97105.78;;;7.90;76.45
46007;BME280;31738;50.188;8.524;2024-02-26T04:58:21;97103.41;;;7.88;76.83
46007;BME280;31738;50.188;8.524;2024-02-26T05:00:46;97103.41;;;7.88;76.83
46007;BME280;31738;50.188;8.524;2024-02-26T05:03:12;97101.84;;;7.87;77.06
46007;BME280;31738;50.188;8.524;2024-02-26T05:05:39;97101.84;;;7.87;77.34
46007;BME280;31738;50.188;8.524;2024-02-26T05:08:06;97107.47;;;7.86;77.21
46007;BME280;31738;50.188;8.524;2024-02-26T05:10:33;97105.91;;;7.85;77.31
46007;BME280;31738;50.188;8.524;2024-02-26T05:12:58;97102.44;;;7.84;77.97
46007;BME280;31738;50.188;8.524;2024-02-26T05:15:24;97106.16;;;7.83;77.59
46007;BME280;31738;50.188;8.524;2024-02-26T05:17:49;97100.06;;;7.83;78.18
46007;BME280;31738;50.188;8.524;2024-02-26T05:20:15;97096.88;;;7.81;78.60
46007;BME280;31738;50.188;8.524;2024-02-26T05:22:40;97096.09;;;7.80;78.56
46007;BME280;31738;50.188;8.524;2024-02-26T05:25:06;97099.84;;;7.79;78.88
46007;BME280;31738;50.188;8.524;2024-02-26T05:27:31;97095.09;;;7.76;78.46
46007;BME280;31738;50.188;8.524;2024-02-26T05:29:57;97095.09;;;7.76;79.34
46007;BME280;31738;50.188;8.524;2024-02-26T05:32:22;97091.94;;;7.74;79.10
46007;BME280;31738;50.188;8.524;2024-02-26T05:34:48;97091.94;;;7.74;79.32
46007;BME280;31738;50.188;8.524;2024-02-26T05:37:13;97094.13;;;7.72;79.27
46007;BME280;31738;50.188;8.524;2024-02-26T05:39:39;97086.13;;;7.72;79.46
46007;BME280;31738;50.188;8.524;2024-02-26T05:42:04;97087.78;;;7.68;80.13
46007;BME280;31738;50.188;8.524;2024-02-26T05:44:30;97094.50;;;7.66;80.20
46007;BME280;31738;50.188;8.524;2024-02-26T05:46:55;97084.41;;;7.63;80.29
46007;BME280;31738;50.188;8.524;2024-02-26T05:49:22;97094.78;;;7.64;80.44
46007;BME280;31738;50.188;8.524;2024-02-26T05:51:48;97092.13;;;7.64;80.14
46007;BME280;31738;50.188;8.524;2024-02-26T05:54:13;97093.22;;;7.63;80.28
46007;BME280;31738;50.188;8.524;2024-02-26T05:56:39;97087.38;;;7.61;80.69
46007;BME280;31738;50.188;8.524;2024-02-26T05:59:05;97092.72;;;7.61;80.78
46007;BME280;31738;50.188;8.524;2024-02-26T06:01:30;97087.97;;;7.58;81.09
46007;BME280;31738;50.188;8.524;2024-02-26T06:03:56;97084.81;;;7.56;81.04
46007;BME280;31738;50.188;8.524;2024-02-26T06:06:22;97088.56;;;7.55;80.98
46007;BME280;31738;50.188;8.524;2024-02-26T06:08:49;97087.53;;;7.51;81.52
46007;BME280;31738;50.188;8.524;2024-02-26T06:11:14;97091.31;;;7.50;81.53
46007;BME280;31738;50.188;8.524;2024-02-26T06:13:40;97091.91;;;7.47;81.21
46007;BME280;31738;50.188;8.524;2024-02-26T06:16:07;97091.91;;;7.47;81.45
46007;BME280;31738;50.188;8.524;2024-02-26T06:18:33;97096.44;;;7.47;81.82
46007;BME280;31738;50.188;8.524;2024-02-26T06:20:58;97092.47;;;7.44;81.71
46007;BME280;31738;50.188;8.524;2024-02-26T06:23:24;97093.28;;;7.45;81.65
46007;BME280;31738;50.188;8.524;2024-02-26T06:25:49;97107.97;;;7.42;81.98
46007;BME280;31738;50.188;8.524;2024-02-26T06:28:14;97105.91;;;7.39;81.82
46007;BME280;31738;50.188;8.524;2024-02-26T06:30:40;97111.53;;;7.38;81.88
46007;BME280;31738;50.188;8.524;2024-02-26T06:33:06;97108.84;;;7.38;81.85
46007;BME280;31738;50.188;8.524;2024-02-26T06:35:31;97108.84;;;7.38;82.02
46007;BME280;31738;50.188;8.524;2024-02-26T06:37:57;97110.75;;;7.37;82.45
46007;BME280;31738;50.188;8.524;2024-02-26T06:40:22;97113.41;;;7.37;82.50
46007;BME280;31738;50.188;8.524;2024-02-26T06:42:48;97124.09;;;7.37;82.04
46007;BME280;31738;50.188;8.524;2024-02-26T06:45:15;97120.91;;;7.35;82.65
46007;BME280;31738;50.188;8.524;2024-02-26T06:47:41;97127.81;;;7.36;82.23
46007;BME280;31738;50.188;8.524;2024-02-26T06:50:08;97134.75;;;7.37;82.71
46007;BME280;31738;50.188;8.524;2024-02-26T06:52:34;97132.38;;;7.36;82.64
46007;BME280;31738;50.188;8.524;2024-02-26T06:54:59;97133.16;;;7.36;82.35
46007;BME280;31738;50.188;8.524;2024-02-26T06:57:25;97139.56;;;7.35;83.08
46007;BME280;31738;50.188;8.524;2024-02-26T06:59:51;97136.91;;;7.35;82.59
46007;BME280;31738;50.188;8.524;2024-02-26T07:02:17;97146.47;;;7.36;83.11
46007;BME280;31738;50.188;8.524;2024-02-26T07:04:43;97147.56;;;7.35;83.10
46007;BME280;31738;50.188;8.524;2024-02-26T07:07:08;97156.09;;;7.37;83.00
46007;BME280;31738;50.188;8.524;2024-02-26T07:09:34;97149.16;;;7.36;83.15
46007;BME280;31738;50.188;8.524;2024-02-26T07:11:59;97149.16;;;7.36;83.27
46007;BME280;31738;50.188;8.524;2024-02-26T07:14:25;97157.16;;;7.36;83.29
46007;BME280;31738;50.188;8.524;2024-02-26T07:16:50;97155.06;;;7.33;83.32
46007;BME280;31738;50.188;8.524;2024-02-26T07:19:16;97158.25;;;7.35;83.15
46007;BME280;31738;50.188;8.524;2024-02-26T07:21:42;97164.09;;;7.37;83.46
46007;BME280;31738;50.188;8.524;2024-02-26T07:24:08;97163.00;;;7.38;83.30
46007;BME280;31738;50.188;8.524;2024-02-26T07:26:33;97163.28;;;7.37;83.04
46007;BME280;31738;50.188;8.524;2024-02-26T07:28:59;97169.13;;;7.39;83.68
46007;BME280;31738;50.188;8.524;2024-02-26T07:31:25;97170.47;;;7.36;83.71
46007;BME280;31738;50.188;8.524;2024-02-26T07:33:51;97170.47;;;7.36;84.02
46007;BME280;31738;50.188;8.524;2024-02-26T07:36:17;97172.09;;;7.37;83.85
46007;BME280;31738;50.188;8.524;2024-02-26T07:38:42;97170.47;;;7.36;83.69
46007;BME280;31738;50.188;8.524;2024-02-26T07:41:08;97175.81;;;7.36;83.59
46007;BME280;31738;50.188;8.524;2024-02-26T07:43:34;97174.25;;;7.35;84.10
46007;BME280;31738;50.188;8.524;2024-02-26T07:45:59;97175.53;;;7.38;83.92
46007;BME280;31738;50.188;8.524;2024-02-26T07:48:24;97174.75;;;7.37;84.01
46007;BME280;31738;50.188;8.524;2024-02-26T08:02:04;97173.97;;;7.18;83.86
46007;BME280;31738;50.188;8.524;2024-02-26T08:15:50;97184.22;;;7.11;83.89
46007;BME280;31738;50.188;8.524;2024-02-26T08:18:16;97187.38;;;7.13;83.74
46007;BME280;31738;50.188;8.524;2024-02-26T08:20:41;97191.06;;;7.17;84.52
46007;BME280;31738;50.188;8.524;2024-02-26T08:23:07;97195.31;;;7.18;84.59
46007;BME280;31738;50.188;8.524;2024-02-26T08:25:32;97197.91;;;7.23;84.37
46007;BME280;31738;50.188;8.524;2024-02-26T08:27:58;97198.88;;;7.27;84.67
46007;BME280;31738;50.188;8.524;2024-02-26T08:30:23;97201.56;;;7.27;84.72
46007;BME280;31738;50.188;8.524;2024-02-26T08:32:49;97190.59;;;7.29;84.46
46007;BME280;31738;50.188;8.524;2024-02-26T08:35:15;97193.50;;;7.32;84.91
46007;BME280;31738;50.188;8.524;2024-02-26T08:37:44;97195.06;;;7.33;84.97
46007;BME280;31738;50.188;8.524;2024-02-26T08:40:10;97198.81;;;7.32;84.85
46007;BME280;31738;50.188;8.524;2024-02-26T08:42:36;97194.19;;;7.38;85.02
46007;BME280;31738;50.188;8.524;2024-02-26T08:45:02;97193.91;;;7.39;84.97
46007;BME280;31738;50.188;8.524;2024-02-26T08:47:28;97192.84;;;7.40;84.66
46007;BME280;31738;50.188;8.524;2024-02-26T08:49:53;97202.94;;;7.43;84.84
46007;BME280;31738;50.188;8.524;2024-02-26T08:52:19;97205.59;;;7.43;84.55
46007;BME280;31738;50.188;8.524;2024-02-26T08:54:44;97202.13;;;7.43;85.01
46007;BME280;31738;50.188;8.524;2024-02-26T08:57:10;97201.84;;;7.44;85.24
46007;BME280;31738;50.188;8.524;2024-02-26T08:59:35;97189.78;;;7.47;85.35
46007;BME280;31738;50.188;8.524;2024-02-26T09:02:01;97184.16;;;7.48;85.34
46007;BME280;31738;50.188;8.524;2024-02-26T09:04:26;97180.63;;;7.53;84.71
46007;BME280;31738;50.188;8.524;2024-02-26T09:06:53;97194.75;;;7.53;84.74
46007;BME280;31738;50.188;8.524;2024-02-26T09:09:19;97188.91;;;7.51;84.97
46007;BME280;31738;50.188;8.524;2024-02-26T09:11:45;97187.03;;;7.52;85.30
46007;BME280;31738;50.188;8.524;2024-02-26T09:14:12;97194.75;;;7.53;85.19
46007;BME280;31738;50.188;8.524;2024-02-26T09:16:37;97203.78;;;7.57;85.00
46007;BME280;31738;50.188;8.524;2024-02-26T09:19:03;97205.34;;;7.58;85.07
46007;BME280;31738;50.188;8.524;2024-02-26T09:21:31;97203.19;;;7.60;85.23
46007;BME280;31738;50.188;8.524;2024-02-26T09:25:01;97200.81;;;7.59;85.46
46007;BME280;31738;50.188;8.524;2024-02-26T09:27:38;97198.91;;;7.59;85.55
46007;BME280;31738;50.188;8.524;2024-02-26T09:30:06;97200.53;;;7.60;85.16
46007;BME280;31738;50.188;8.524;2024-02-26T09:32:56;97206.63;;;7.61;85.13
46007;BME280;31738;50.188;8.524;2024-02-26T09:35:21;97199.13;;;7.63;85.03
46007;BME280;31738;50.188;8.524;2024-02-26T09:37:54;97197.47;;;7.67;85.34
46007;BME280;31738;50.188;8.524;2024-02-26T09:40:50;97200.34;;;7.70;85.16
46007;BME280;31738;50.188;8.524;2024-02-26T09:43:46;97202.44;;;7.73;85.15
46007;BME280;31738;50.188;8.524;2024-02-26T09:46:19;97207.75;;;7.73;85.55
46007;BME280;31738;50.188;8.524;2024-02-26T09:49:30;97212.88;;;7.70;85.19
46007;BME280;31738;50.188;8.524;2024-02-26T09:52:04;97223.19;;;7.76;85.34
46007;BME280;31738;50.188;8.524;2024-02-26T09:54:49;97224.19;;;7.80;85.30
46007;BME280;31738;50.188;8.524;2024-02-26T09:57:23;97219.34;;;7.82;85.34
46007;BME280;31738;50.188;8.524;2024-02-26T09:59:56;97218.84;;;7.80;85.15
46007;BME280;31738;50.188;8.524;2024-02-26T10:06:12;97218.25;;;7.83;85.84
46007;BME280;31738;50.188;8.524;2024-02-26T10:08:44;97222.94;;;7.91;85.87
46007;BME280;31738;50.188;8.524;2024-02-26T10:11:21;97224.63;;;8.01;85.92
46007;BME280;31738;50.188;8.524;2024-02-26T10:13:55;97219.91;;;8.11;86.12
46007;BME280;31738;50.188;8.524;2024-02-26T10:16:40;97218.72;;;8.17;85.54
46007;BME280;31738;50.188;8.524;2024-02-26T10:19:29;97222.91;;;8.23;85.18
46007;BME280;31738;50.188;8.524;2024-02-26T10:22:27;97224.22;;;8.26;85.53
46007;BME280;31738;50.188;8.524;2024-02-26T10:25:01;97222.91;;;8.23;85.40
46007;BME280;31738;50.188;8.524;2024-02-26T10:28:43;97230.84;;;8.28;85.49
46007;BME280;31738;50.188;8.524;2024-02-26T10:31:21;97234.03;;;8.30;85.55
46007;BME280;31738;50.188;8.524;2024-02-26T10:34:00;97241.44;;;8.33;86.11
46007;BME280;31738;50.188;8.524;2024-02-26T10:37:06;97245.69;;;8.34;85.90
46007;BME280;31738;50.188;8.524;2024-02-26T10:39:55;97245.59;;;8.39;85.53
46007;BME280;31738;50.188;8.524;2024-02-26T10:42:38;97241.94;;;8.35;86.41
46007;BME280;31738;50.188;8.524;2024-02-26T10:45:32;97234.53;;;8.46;86.13
46007;BME280;31738;50.188;8.524;2024-02-26T10:51:44;97241.38;;;8.52;86.11
46007;BME280;31738;50.188;8.524;2024-02-26T10:54:32;97247.91;;;8.59;86.08
46007;BME280;31738;50.188;8.524;2024-02-26T10:57:09;97257.56;;;8.55;85.89
46007;BME280;31738;50.188;8.524;2024-02-26T10:59:56;97255.22;;;8.68;85.63
46007;BME280;31738;50.188;8.524;2024-02-26T11:03:04;97250.19;;;8.80;85.72
46007;BME280;31738;50.188;8.524;2024-02-26T11:05:42;97261.53;;;8.85;85.73
46007;BME280;31738;50.188;8.524;2024-02-26T11:08:56;97256.41;;;8.89;85.48
46007;BME280;31738;50.188;8.524;2024-02-26T11:11:39;97257.97;;;8.90;86.10
46007;BME280;31738;50.188;8.524;2024-02-26T11:14:25;97260.34;;;8.91;86.50
46007;BME280;31738;50.188;8.524;2024-02-26T11:17:03;97253.41;;;9.04;86.19
46007;BME280;31738;50.188;8.524;2024-02-26T11:19:49;97262.88;;;9.23;85.92
46007;BME280;31738;50.188;8.524;2024-02-26T11:22:41;97257.84;;;9.22;85.66
46007;BME280;31738;50.188;8.524;2024-02-26T11:25:27;97267.94;;;9.25;86.22
46007;BME280;31738;50.188;8.524;2024-02-26T11:28:05;97262.47;;;9.30;85.99
46007;BME280;31738;50.188;8.524;2024-02-26T11:30:37;97267.03;;;9.29;86.48
46007;BME280;31738;50.188;8.524;2024-02-26T11:33:16;97258.50;;;9.41;86.46
46007;BME280;31738;50.188;8.524;2024-02-26T11:35:42;97258.56;;;9.49;86.31
46007;BME280;31738;50.188;8.524;2024-02-26T11:38:28;97258.41;;;9.68;86.17
46007;BME280;31738;50.188;8.524;2024-02-26T11:40:57;97267.28;;;9.77;86.07
46007;BME280;31738;50.188;8.524;2024-02-26T11:44:05;97272.16;;;9.97;85.70
46007;BME280;31738;50.188;8.524;2024-02-26T11:46:42;97275.56;;;9.89;85.76
46007;BME280;31738;50.188;8.524;2024-02-26T11:49:49;97280.31;;;9.92;85.73
46007;BME280;31738;50.188;8.524;2024-02-26T11:52:19;97283.13;;;9.87;86.09
46007;BME280;31738;50.188;8.524;2024-02-26T11:54:57;97277.31;;;9.93;86.08
46007;BME280;31738;50.188;8.524;2024-02-26T11:57:39;97266.19;;;10.00;86.09
46007;BME280;31738;50.188;8.524;2024-02-26T12:00:14;97267.63;;;10.06;85.49
46007;BME280;31738;50.188;8.524;2024-02-26T12:02:58;97258.91;;;10.14;85.95
46007;BME280;31738;50.188;8.524;2024-02-26T12:05:35;97260.25;;;10.25;85.71
46007;BME280;31738;50.188;8.524;2024-02-26T12:08:52;97278.19;;;10.24;85.48
46007;BME280;31738;50.188;8.524;2024-02-26T12:11:27;97274.25;;;10.22;85.78
46007;BME280;31738;50.188;8.524;2024-02-26T12:13:58;97280.56;;;10.26;85.63
46007;BME280;31738;50.188;8.524;2024-02-26T12:16:37;97281.09;;;10.36;85.64
46007;BME280;31738;50.188;8.524;2024-02-26T12:19:10;97281.56;;;10.30;85.19
46007;BME280;31738;50.188;8.524;2024-02-26T12:21:53;97285.19;;;10.34;85.46
46007;BME280;31738;50.188;8.524;2024-02-26T12:24:28;97284.34;;;10.25;85.24
46007;BME280;31738;50.188;8.524;2024-02-26T12:27:25;97292.50;;;10.20;85.82
46007;BME280;31738;50.188;8.524;2024-02-26T12:29:53;97296.75;;;10.21;85.58
46007;BME280;31738;50.188;8.524;2024-02-26T12:32:40;97301.19;;;10.25;85.40
46007;BME280;31738;50.188;8.524;2024-02-26T12:35:06;97305.66;;;10.30;85.35
46007;BME280;31738;50.188;8.524;2024-02-26T12:37:55;97308.88;;;10.41;85.29
46007;BME280;31738;50.188;8.524;2024-02-26T12:40:29;97300.25;;;10.52;85.00
46007;BME280;31738;50.188;8.524;2024-02-26T12:43:50;97307.03;;;10.50;85.17
46007;BME280;31738;50.188;8.524;2024-02-26T12:46:30;97306.41;;;10.53;85.04
46007;BME280;31738;50.188;8.524;2024-02-26T12:49:16;97316.09;;;10.62;84.65
46007;BME280;31738;50.188;8.524;2024-02-26T12:51:53;97322.41;;;10.66;84.67
46007;BME280;31738;50.188;8.524;2024-02-26T12:54:36;97322.75;;;10.73;84.79
46007;BME280;31738;50.188;8.524;2024-02-26T12:57:14;97329.34;;;10.67;84.08
46007;BME280;31738;50.188;8.524;2024-02-26T13:00:31;97328.31;;;10.77;84.44
46007;BME280;31738;50.188;8.524;2024-02-26T13:03:30;97327.16;;;10.69;84.23
46007;BME280;31738;50.188;8.524;2024-02-26T13:06:05;97329.09;;;10.77;84.36
46007;BME280;31738;50.188;8.524;2024-02-26T13:08:32;97330.22;;;10.85;84.05
46007;BME280;31738;50.188;8.524;2024-02-26T13:10:59;97328.81;;;10.87;83.93
46007;BME280;31738;50.188;8.524;2024-02-26T13:13:24;97334.34;;;10.82;83.65
46007;BME280;31738;50.188;8.524;2024-02-26T13:16:05;97336.56;;;10.89;84.07
46007;BME280;31738;50.188;8.524;2024-02-26T13:18:46;97335.50;;;10.98;83.70
46007;BME280;31738;50.188;8.524;2024-02-26T13:21:34;97339.00;;;11.07;83.92
46007;BME280;31738;50.188;8.524;2024-02-26T13:24:45;97354.00;;;11.08;83.00
46007;BME280;31738;50.188;8.524;2024-02-26T13:27:21;97361.09;;;11.04;82.12
46007;BME280;31738;50.188;8.524;2024-02-26T13:30:13;97370.25;;;11.03;82.82
46007;BME280;31738;50.188;8.524;2024-02-26T13:32:52;97373.50;;;10.92;83.05
46007;BME280;31738;50.188;8.524;2024-02-26T13:35:24;97385.63;;;10.89;83.38
46007;BME280;31738;50.188;8.524;2024-02-26T13:37:52;97385.13;;;10.87;83.23
46007;BME280;31738;50.188;8.524;2024-02-26T13:40:23;97386.56;;;10.85;83.28
46007;BME280;31738;50.188;8.524;2024-02-26T13:43:07;97390.81;;;10.86;83.74
46007;BME280;31738;50.188;8.524;2024-02-26T13:46:04;97383.06;;;10.84;83.62
46007;BME280;31738;50.188;8.524;2024-02-26T13:48:39;97390.56;;;10.96;83.51
46007;BME280;31738;50.188;8.524;2024-02-26T13:51:05;97384.91;;;11.06;83.32
46007;BME280;31738;50.188;8.524;2024-02-26T13:54:02;97390.47;;;11.09;83.12
46007;BME280;31738;50.188;8.524;2024-02-26T13:56:28;97380.03;;;11.08;83.26
46007;BME280;31738;50.188;8.524;2024-02-26T13:59:03;97390.66;;;11.13;83.18
46007;BME280;31738;50.188;8.524;2024-02-26T14:01:41;97387.59;;;11.06;82.93
46007;BME280;31738;50.188;8.524;2024-02-26T14:04:53;97389.41;;;11.19;83.05
46007;BME280;31738;50.188;8.524;2024-02-26T14:07:32;97393.19;;;11.18;82.78